Nathan Golding — WDD8656 — position and weather

sailwx.info

Track history (hours):
 
Tides and Currents Weather Stations Pressure Air Temp Water Temp Dewpoint Dewpoint Depression Visibility Wind Speed Wind Dir Waves Ship Positions

Nathan Golding

Owner: Golding Barge Line, Inc., VICKSBURG, MS. More information available from US FCC via Universal Licensing System and Coast Guard Vessel Documentation Center.

Last reported at 2017-Sep-15 19:13 UTC. Time now 2017-Sep-23 04:13 UTC.
Position N 30°04' W 093°40'.

Length 21 m; draft 2.4 m.

Type: Towing. MMSI: 367301010.

Date/timePositionNaut miles runAvg speedWind from/ knotsBaromVisibWave heightAir tempDewpointWater temp
2017-Sep-15 19:13N 30°04' W 093°40'2 7.3
2017-Sep-15 18:59N 30°04' W 093°38'3 6.9
2017-Sep-15 18:30N 30°04' W 093°35'3 6.7
2017-Sep-15 18:00N 30°04' W 093°31'3 7.0
2017-Sep-15 17:30N 30°04' W 093°27'3 6.6
2017-Sep-15 17:00N 30°04' W 093°23'3 5.6
2017-Sep-15 16:30N 30°05' W 093°20'2 4.6
2017-Sep-15 16:00N 30°05' W 093°17'3 5.3
2017-Sep-15 15:30N 30°03' W 093°16'3 5.9
2017-Sep-15 15:00N 30°01' W 093°14'3 6.4
2017-Sep-15 14:30N 29°58' W 093°11'3 6.2
2017-Sep-15 14:00N 29°56' W 093°09'57 5.5
2017-Sep-15 03:40N 29°49' W 092°03'60 5.1
2017-Sep-14 15:50N 29°34' W 090°56'2 6.0
2017-Sep-14 15:27N 29°33' W 090°54'3 5.9
2017-Sep-14 15:00N 29°32' W 090°51'3 6.2
2017-Sep-14 14:30N 29°32' W 090°47'3 5.5
2017-Sep-14 14:00N 29°34' W 090°45'1 2.8
2017-Sep-14 13:29N 29°35' W 090°43'1 2.0
2017-Sep-14 13:00N 29°35' W 090°43'2 3.1
2017-Sep-14 12:29N 29°37' W 090°42'0 0.1
2017-Sep-14 11:59N 29°37' W 090°42'0 0.0
2017-Sep-14 11:29N 29°37' W 090°42'0 0.0
2017-Sep-14 10:50N 29°37' W 090°42'0 0.0
2017-Sep-14 10:29N 29°37' W 090°42'0 0.0
2017-Sep-14 09:59N 29°37' W 090°42'1 3.1
2017-Sep-14 09:31N 29°36' W 090°40'3 6.5
2017-Sep-14 09:00N 29°35' W 090°37'3 6.0
2017-Sep-14 08:30N 29°34' W 090°34'3 5.2
2017-Sep-14 08:00N 29°34' W 090°31'  
2017-Sep-11 17:43N 29°33' W 090°28'2 6.1
2017-Sep-11 17:23N 29°34' W 090°30'2 5.7
2017-Sep-11 17:00N 29°34' W 090°33'3 5.6
2017-Sep-11 16:30N 29°35' W 090°36'3 5.5
2017-Sep-11 16:00N 29°36' W 090°39'3 5.2
2017-Sep-11 15:30N 29°37' W 090°42'1 2.9
2017-Sep-11 15:00N 29°36' W 090°43'2 3.9
2017-Sep-11 14:30N 29°34' W 090°44'3 5.5
2017-Sep-11 14:00N 29°32' W 090°46'3 6.4
2017-Sep-11 13:30N 29°32' W 090°50'3 6.0
2017-Sep-11 12:58N 29°33' W 090°54'3 6.1
2017-Sep-11 12:28N 29°34' W 090°57'57 4.4
2017-Sep-10 23:39N 29°50' W 091°60'1 5.7
2017-Sep-10 23:30N 29°50' W 092°00'3 5.4
2017-Sep-10 23:00N 29°49' W 092°03'2 4.1
2017-Sep-10 22:30N 29°48' W 092°06'3 5.6
2017-Sep-10 22:00N 29°47' W 092°09'3 5.9
2017-Sep-10 21:30N 29°47' W 092°12'3 5.3
2017-Sep-10 21:00N 29°48' W 092°15'1 1.6
2017-Sep-10 20:29N 29°48' W 092°16'0 0.6
2017-Sep-10 20:00N 29°48' W 092°16'3 5.7
2017-Sep-10 19:27N 29°50' W 092°19'38 5.7
2017-Sep-10 12:48N 29°56' W 093°02'2 5.3
2017-Sep-10 12:29N 29°56' W 093°04'3 4.8
2017-Sep-10 11:57N 29°56' W 093°07'8 4.7
2017-Sep-10 10:21N 30°01' W 093°14'1 4.1
2017-Sep-10 10:00N 30°02' W 093°15'1 1.3
2017-Sep-10 09:30N 30°02' W 093°15'2 4.4
2017-Sep-10 09:00N 30°04' W 093°16'2 4.3
2017-Sep-10 08:30N 30°06' W 093°18'3 4.7
2017-Sep-10 07:58N 30°04' W 093°21'2 4.5
2017-Sep-10 07:31N 30°04' W 093°23'2 3.9
2017-Sep-10 07:00N 30°04' W 093°25'1 2.6
2017-Sep-10 06:28N 30°04' W 093°27'0 0.2
2017-Sep-10 05:58N 30°04' W 093°27'0 0.0
2017-Sep-10 05:28N 30°04' W 093°27'1 2.0
2017-Sep-10 05:00N 30°04' W 093°28'2 4.2
2017-Sep-10 04:29N 30°04' W 093°30'0 0.2
2017-Sep-10 04:00N 30°04' W 093°30'1 1.6
2017-Sep-10 03:29N 30°04' W 093°29'0 0.0
2017-Sep-10 02:59N 30°04' W 093°29'0 0.0
2017-Sep-10 02:29N 30°04' W 093°29'0 0.0
2017-Sep-10 01:59N 30°04' W 093°29'0 0.0
2017-Sep-10 01:29N 30°04' W 093°29'0 0.0
2017-Sep-10 00:59N 30°04' W 093°29'0 0.0
2017-Sep-10 00:29N 30°04' W 093°29'0 0.0
2017-Sep-09 23:59N 30°04' W 093°29'0 0.0
2017-Sep-09 23:29N 30°04' W 093°29'0 0.0
2017-Sep-09 22:59N 30°04' W 093°29'0 0.0
2017-Sep-09 22:29N 30°04' W 093°29'0 0.0
2017-Sep-09 21:59N 30°04' W 093°29'0 0.0
2017-Sep-09 21:29N 30°04' W 093°29'0 0.0
2017-Sep-09 20:59N 30°04' W 093°29'0 0.0
2017-Sep-09 20:29N 30°04' W 093°29'0 0.0
2017-Sep-09 19:59N 30°04' W 093°29'0 0.0
2017-Sep-09 19:29N 30°04' W 093°29'0 0.0
2017-Sep-09 18:59N 30°04' W 093°29'0 0.0
2017-Sep-09 18:29N 30°04' W 093°29'0 0.0
2017-Sep-09 17:59N 30°04' W 093°29'0 0.0
2017-Sep-09 17:29N 30°04' W 093°29'0 0.0
2017-Sep-09 16:59N 30°04' W 093°29'0 0.0
2017-Sep-09 16:29N 30°04' W 093°29'0 0.0
2017-Sep-09 15:59N 30°04' W 093°29'0 0.0
2017-Sep-09 15:29N 30°04' W 093°29'0 0.0
2017-Sep-09 14:59N 30°04' W 093°29'0 0.0
2017-Sep-09 14:17N 30°04' W 093°29'0 0.0
2017-Sep-09 13:53N 30°04' W 093°29'0 0.0
2017-Sep-09 13:02N 30°04' W 093°29'0 0.1
2017-Sep-09 12:59N 30°04' W 093°29'0 0.0
2017-Sep-09 12:29N 30°04' W 093°29'0 0.0
2017-Sep-09 11:59N 30°04' W 093°29'0 0.0
2017-Sep-09 11:29N 30°04' W 093°29'0 0.0
2017-Sep-09 10:56N 30°04' W 093°29'0 0.0
2017-Sep-09 10:23N 30°04' W 093°29'0 0.0
2017-Sep-09 09:56N 30°04' W 093°29'0 0.0
2017-Sep-09 09:29N 30°04' W 093°29'0 0.0
2017-Sep-09 08:50N 30°04' W 093°29'0 0.0
2017-Sep-09 08:29N 30°04' W 093°29'0 0.0
2017-Sep-09 07:56N 30°04' W 093°29'0 0.0
2017-Sep-09 07:29N 30°04' W 093°29'0 0.0
2017-Sep-09 06:59N 30°04' W 093°29'0 0.0
2017-Sep-09 06:29N 30°04' W 093°29'0 0.0
2017-Sep-09 01:11N 30°04' W 093°29'0 0.0
2017-Sep-09 00:59N 30°04' W 093°29'1 1.2
2017-Sep-09 00:31N 30°04' W 093°30'2 3.9
2017-Sep-09 00:01N 30°04' W 093°32'3 4.3
2017-Sep-08 23:16N 30°04' W 093°36'3 5.0
2017-Sep-08 22:45N 30°04' W 093°39'0 0.0
2017-Sep-08 20:45N 30°03' W 093°39'0 0.0
2017-Sep-08 20:27N 30°03' W 093°39'0 0.0
2017-Sep-08 20:00N 30°03' W 093°39'0 0.0
2017-Sep-08 19:27N 30°03' W 093°39'0 0.0
2017-Sep-08 19:00N 30°03' W 093°39'0 0.0
2017-Sep-08 17:57N 30°03' W 093°39'0 0.0
2017-Sep-08 14:21N 30°04' W 093°39'1 0.8
2017-Sep-08 13:10N 30°04' W 093°40'71 4.7
2017-Sep-07 22:02N 29°30' W 094°53'1 8.3
2017-Sep-07 21:57N 29°31' W 094°53'3 7.5
2017-Sep-07 21:30N 29°34' W 094°55'4 8.5
2017-Sep-07 21:00N 29°37' W 094°58'4 8.7
2017-Sep-07 20:30N 29°42' W 094°59'6 2.2
2017-Sep-07 17:30N 29°46' W 095°05'4 0.3
2017-Sep-07 00:57N 29°45' W 095°10'4 1.0
2017-Sep-06 20:47N 29°46' W 095°05'4 0.2
2017-Sep-06 03:06N 29°44' W 095°09'3 7.2
2017-Sep-06 02:38N 29°45' W 095°06'2 1.0
2017-Sep-06 00:36N 29°47' W 095°04'0 2.4
2017-Sep-06 00:24N 29°47' W 095°05'1 3.2
2017-Sep-05 23:59N 29°45' W 095°04'3 6.4
2017-Sep-05 23:27N 29°43' W 095°01'3 6.6
2017-Sep-05 23:00N 29°41' W 094°59'4 8.8
2017-Sep-05 22:30N 29°37' W 094°57'5 9.3
2017-Sep-05 22:00N 29°33' W 094°54'  
Track history (hours):
 
Tides and Currents Weather Stations Pressure Air Temp Water Temp Dewpoint Dewpoint Depression Visibility Wind Speed Wind Dir Waves Ship Positions

Nathan Golding

Owner: Golding Barge Line, Inc., VICKSBURG, MS. More information available from US FCC via Universal Licensing System and Coast Guard Vessel Documentation Center.

Last reported at 2017-Sep-15 19:13 UTC. Time now 2017-Sep-23 04:13 UTC.
Position N 30°04' W 093°40'.

Length 21 m; draft 2.4 m.

Type: Towing. MMSI: 367301010.

Date/timePositionNaut miles runAvg speedWind from/ knotsBaromVisibWave heightAir tempDewpointWater temp
2017-Sep-15 19:13N 30°04' W 093°40'2 7.3
2017-Sep-15 18:59N 30°04' W 093°38'3 6.9
2017-Sep-15 18:30N 30°04' W 093°35'3 6.7
2017-Sep-15 18:00N 30°04' W 093°31'3 7.0
2017-Sep-15 17:30N 30°04' W 093°27'3 6.6
2017-Sep-15 17:00N 30°04' W 093°23'3 5.6
2017-Sep-15 16:30N 30°05' W 093°20'2 4.6
2017-Sep-15 16:00N 30°05' W 093°17'3 5.3
2017-Sep-15 15:30N 30°03' W 093°16'3 5.9
2017-Sep-15 15:00N 30°01' W 093°14'3 6.4
2017-Sep-15 14:30N 29°58' W 093°11'3 6.2
2017-Sep-15 14:00N 29°56' W 093°09'57 5.5
2017-Sep-15 03:40N 29°49' W 092°03'60 5.1
2017-Sep-14 15:50N 29°34' W 090°56'2 6.0
2017-Sep-14 15:27N 29°33' W 090°54'3 5.9
2017-Sep-14 15:00N 29°32' W 090°51'3 6.2
2017-Sep-14 14:30N 29°32' W 090°47'3 5.5
2017-Sep-14 14:00N 29°34' W 090°45'1 2.8
2017-Sep-14 13:29N 29°35' W 090°43'1 2.0
2017-Sep-14 13:00N 29°35' W 090°43'2 3.1
2017-Sep-14 12:29N 29°37' W 090°42'0 0.1
2017-Sep-14 11:59N 29°37' W 090°42'0 0.0
2017-Sep-14 11:29N 29°37' W 090°42'0 0.0
2017-Sep-14 10:50N 29°37' W 090°42'0 0.0
2017-Sep-14 10:29N 29°37' W 090°42'0 0.0
2017-Sep-14 09:59N 29°37' W 090°42'1 3.1
2017-Sep-14 09:31N 29°36' W 090°40'3 6.5
2017-Sep-14 09:00N 29°35' W 090°37'3 6.0
2017-Sep-14 08:30N 29°34' W 090°34'3 5.2
2017-Sep-14 08:00N 29°34' W 090°31'  
2017-Sep-11 17:43N 29°33' W 090°28'2 6.1
2017-Sep-11 17:23N 29°34' W 090°30'2 5.7
2017-Sep-11 17:00N 29°34' W 090°33'3 5.6
2017-Sep-11 16:30N 29°35' W 090°36'3 5.5
2017-Sep-11 16:00N 29°36' W 090°39'3 5.2
2017-Sep-11 15:30N 29°37' W 090°42'1 2.9
2017-Sep-11 15:00N 29°36' W 090°43'2 3.9
2017-Sep-11 14:30N 29°34' W 090°44'3 5.5
2017-Sep-11 14:00N 29°32' W 090°46'3 6.4
2017-Sep-11 13:30N 29°32' W 090°50'3 6.0
2017-Sep-11 12:58N 29°33' W 090°54'3 6.1
2017-Sep-11 12:28N 29°34' W 090°57'57 4.4
2017-Sep-10 23:39N 29°50' W 091°60'1 5.7
2017-Sep-10 23:30N 29°50' W 092°00'3 5.4
2017-Sep-10 23:00N 29°49' W 092°03'2 4.1
2017-Sep-10 22:30N 29°48' W 092°06'3 5.6
2017-Sep-10 22:00N 29°47' W 092°09'3 5.9
2017-Sep-10 21:30N 29°47' W 092°12'3 5.3
2017-Sep-10 21:00N 29°48' W 092°15'1 1.6
2017-Sep-10 20:29N 29°48' W 092°16'0 0.6
2017-Sep-10 20:00N 29°48' W 092°16'3 5.7
2017-Sep-10 19:27N 29°50' W 092°19'38 5.7
2017-Sep-10 12:48N 29°56' W 093°02'2 5.3
2017-Sep-10 12:29N 29°56' W 093°04'3 4.8
2017-Sep-10 11:57N 29°56' W 093°07'8 4.7
2017-Sep-10 10:21N 30°01' W 093°14'1 4.1
2017-Sep-10 10:00N 30°02' W 093°15'1 1.3
2017-Sep-10 09:30N 30°02' W 093°15'2 4.4
2017-Sep-10 09:00N 30°04' W 093°16'2 4.3
2017-Sep-10 08:30N 30°06' W 093°18'3 4.7
2017-Sep-10 07:58N 30°04' W 093°21'2 4.5
2017-Sep-10 07:31N 30°04' W 093°23'2 3.9
2017-Sep-10 07:00N 30°04' W 093°25'1 2.6
2017-Sep-10 06:28N 30°04' W 093°27'0 0.2
2017-Sep-10 05:58N 30°04' W 093°27'0 0.0
2017-Sep-10 05:28N 30°04' W 093°27'1 2.0
2017-Sep-10 05:00N 30°04' W 093°28'2 4.2
2017-Sep-10 04:29N 30°04' W 093°30'0 0.2
2017-Sep-10 04:00N 30°04' W 093°30'1 1.6
2017-Sep-10 03:29N 30°04' W 093°29'0 0.0
2017-Sep-10 02:59N 30°04' W 093°29'0 0.0
2017-Sep-10 02:29N 30°04' W 093°29'0 0.0
2017-Sep-10 01:59N 30°04' W 093°29'0 0.0
2017-Sep-10 01:29N 30°04' W 093°29'0 0.0
2017-Sep-10 00:59N 30°04' W 093°29'0 0.0
2017-Sep-10 00:29N 30°04' W 093°29'0 0.0
2017-Sep-09 23:59N 30°04' W 093°29'0 0.0
2017-Sep-09 23:29N 30°04' W 093°29'0 0.0
2017-Sep-09 22:59N 30°04' W 093°29'0 0.0
2017-Sep-09 22:29N 30°04' W 093°29'0 0.0
2017-Sep-09 21:59N 30°04' W 093°29'0 0.0
2017-Sep-09 21:29N 30°04' W 093°29'0 0.0
2017-Sep-09 20:59N 30°04' W 093°29'0 0.0
2017-Sep-09 20:29N 30°04' W 093°29'0 0.0
2017-Sep-09 19:59N 30°04' W 093°29'0 0.0
2017-Sep-09 19:29N 30°04' W 093°29'0 0.0
2017-Sep-09 18:59N 30°04' W 093°29'0 0.0
2017-Sep-09 18:29N 30°04' W 093°29'0 0.0
2017-Sep-09 17:59N 30°04' W 093°29'0 0.0
2017-Sep-09 17:29N 30°04' W 093°29'0 0.0
2017-Sep-09 16:59N 30°04' W 093°29'0 0.0
2017-Sep-09 16:29N 30°04' W 093°29'0 0.0
2017-Sep-09 15:59N 30°04' W 093°29'0 0.0
2017-Sep-09 15:29N 30°04' W 093°29'0 0.0
2017-Sep-09 14:59N 30°04' W 093°29'0 0.0
2017-Sep-09 14:17N 30°04' W 093°29'0 0.0
2017-Sep-09 13:53N 30°04' W 093°29'0 0.0
2017-Sep-09 13:02N 30°04' W 093°29'0 0.1
2017-Sep-09 12:59N 30°04' W 093°29'0 0.0
2017-Sep-09 12:29N 30°04' W 093°29'0 0.0
2017-Sep-09 11:59N 30°04' W 093°29'0 0.0
2017-Sep-09 11:29N 30°04' W 093°29'0 0.0
2017-Sep-09 10:56N 30°04' W 093°29'0 0.0
2017-Sep-09 10:23N 30°04' W 093°29'0 0.0
2017-Sep-09 09:56N 30°04' W 093°29'0 0.0
2017-Sep-09 09:29N 30°04' W 093°29'0 0.0
2017-Sep-09 08:50N 30°04' W 093°29'0 0.0
2017-Sep-09 08:29N 30°04' W 093°29'0 0.0
2017-Sep-09 07:56N 30°04' W 093°29'0 0.0
2017-Sep-09 07:29N 30°04' W 093°29'0 0.0
2017-Sep-09 06:59N 30°04' W 093°29'0 0.0
2017-Sep-09 06:29N 30°04' W 093°29'0 0.0
2017-Sep-09 01:11N 30°04' W 093°29'0 0.0
2017-Sep-09 00:59N 30°04' W 093°29'1 1.2
2017-Sep-09 00:31N 30°04' W 093°30'2 3.9
2017-Sep-09 00:01N 30°04' W 093°32'3 4.3
2017-Sep-08 23:16N 30°04' W 093°36'3 5.0
2017-Sep-08 22:45N 30°04' W 093°39'0 0.0
2017-Sep-08 20:45N 30°03' W 093°39'0 0.0
2017-Sep-08 20:27N 30°03' W 093°39'0 0.0
2017-Sep-08 20:00N 30°03' W 093°39'0 0.0
2017-Sep-08 19:27N 30°03' W 093°39'0 0.0
2017-Sep-08 19:00N 30°03' W 093°39'0 0.0
2017-Sep-08 17:57N 30°03' W 093°39'0 0.0
2017-Sep-08 14:21N 30°04' W 093°39'1 0.8
2017-Sep-08 13:10N 30°04' W 093°40'71 4.7
2017-Sep-07 22:02N 29°30' W 094°53'1 8.3
2017-Sep-07 21:57N 29°31' W 094°53'3 7.5
2017-Sep-07 21:30N 29°34' W 094°55'4 8.5
2017-Sep-07 21:00N 29°37' W 094°58'4 8.7
2017-Sep-07 20:30N 29°42' W 094°59'6 2.2
2017-Sep-07 17:30N 29°46' W 095°05'4 0.3
2017-Sep-07 00:57N 29°45' W 095°10'4 1.0
2017-Sep-06 20:47N 29°46' W 095°05'4 0.2
2017-Sep-06 03:06N 29°44' W 095°09'3 7.2
2017-Sep-06 02:38N 29°45' W 095°06'2 1.0
2017-Sep-06 00:36N 29°47' W 095°04'0 2.4
2017-Sep-06 00:24N 29°47' W 095°05'1 3.2
2017-Sep-05 23:59N 29°45' W 095°04'3 6.4
2017-Sep-05 23:27N 29°43' W 095°01'3 6.6
2017-Sep-05 23:00N 29°41' W 094°59'4 8.8
2017-Sep-05 22:30N 29°37' W 094°57'5 9.3
2017-Sep-05 22:00N 29°33' W 094°54'  

Dump ship's entire track history